Jane A. Bouchard — WDB4391 — position and weather

sailwx.info

Track history (hours):
 
Tides and Currents Weather Stations Pressure Air Temp Water Temp Dewpoint Dewpoint Depression Visibility Wind Speed Wind Dir Waves Ship Positions

Jane A. Bouchard

Owner: TUG JANE A BOUCHARD, MELVILLE, NY. More information available from US FCC via Universal Licensing System and Coast Guard Vessel Documentation Center.

Last reported at 2017-Sep-24 01:00 UTC. Time now 2017-Sep-24 10:27 UTC.
Position N 43°38' W 070°16'.

Length 163 m; draft 7 m.

Type: Towing. MMSI: 366897920.

Date/timePositionNaut miles runAvg speedWind from/ knotsBaromVisibWave heightAir tempDewpointWater temp
2017-Sep-24 01:00N 43°38' W 070°16'0 0.0
2017-Sep-24 00:24N 43°38' W 070°16'0 0.0
2017-Sep-23 23:51N 43°38' W 070°16'0 0.0
2017-Sep-23 23:30N 43°38' W 070°16'0 0.0
2017-Sep-23 23:00N 43°38' W 070°16'0 0.4
2017-Sep-23 22:30N 43°39' W 070°16'3 4.5
2017-Sep-23 21:57N 43°38' W 070°12'4 9.4
2017-Sep-23 21:30N 43°34' W 070°09'3 6.7
2017-Sep-23 21:00N 43°32' W 070°06'4 7.8
2017-Sep-23 20:30N 43°28' W 070°07'4 7.9
2017-Sep-23 20:00N 43°24' W 070°08'156 3.2
2017-Sep-21 19:10N 41°15' W 072°05'312.3
2017-Sep-21 18:55N 41°14' W 072°09'512.4
2017-Sep-21 18:30N 41°13' W 072°16'612.4
2017-Sep-21 18:00N 41°11' W 072°23'611.7
2017-Sep-21 17:30N 41°10' W 072°31'611.2
2017-Sep-21 17:00N 41°11' W 072°38'510.7
2017-Sep-21 16:30N 41°11' W 072°46'  
2017-Sep-19 04:07N 40°59' W 073°28'110.8
2017-Sep-19 04:00N 40°58' W 073°29'510.5
2017-Sep-19 03:30N 40°56' W 073°35'510.3
2017-Sep-19 02:59N 40°54' W 073°42'510.1
2017-Sep-19 02:30N 40°50' W 073°46'4 8.0
2017-Sep-19 01:59N 40°48' W 073°51'3 6.8
2017-Sep-19 01:29N 40°47' W 073°55'4 7.4
2017-Sep-19 01:01N 40°44' W 073°58'3 6.9
2017-Sep-19 00:31N 40°42' W 074°01'3 5.6
2017-Sep-19 00:01N 40°45' W 074°01'3 5.0
2017-Sep-18 23:31N 40°47' W 073°60'3 5.2
2017-Sep-18 23:01N 40°49' W 073°58'4 7.2
2017-Sep-18 22:30N 40°53' W 073°56'  
2017-Sep-15 20:53N 40°60' W 073°54'2 6.3
2017-Sep-15 20:30N 40°57' W 073°54'7 7.2
2017-Sep-15 19:30N 40°51' W 073°57'611.7
2017-Sep-15 19:00N 40°45' W 074°01'611.0
2017-Sep-15 18:30N 40°40' W 074°03'4 7.7
2017-Sep-15 18:00N 40°39' W 074°08'4 7.2
2017-Sep-15 17:30N 40°38' W 074°12'2 4.5
2017-Sep-15 17:00N 40°35' W 074°12'0 0.0
2017-Sep-15 16:30N 40°35' W 074°12'0 0.0
2017-Sep-15 16:00N 40°35' W 074°12'0 0.0
2017-Sep-15 15:30N 40°35' W 074°12'0 0.0
2017-Sep-15 14:59N 40°35' W 074°12'0 0.0
2017-Sep-15 14:30N 40°35' W 074°12'0 0.0
2017-Sep-15 14:00N 40°35' W 074°12'0 0.0
2017-Sep-15 13:30N 40°35' W 074°12'0 0.0
2017-Sep-15 13:00N 40°35' W 074°12'0 0.0
2017-Sep-15 12:30N 40°35' W 074°12'0 0.0
2017-Sep-15 12:00N 40°35' W 074°12'0 0.0
2017-Sep-15 11:30N 40°35' W 074°12'0 0.0
2017-Sep-15 11:00N 40°35' W 074°12'0 0.0
2017-Sep-15 10:29N 40°35' W 074°12'0 0.0
2017-Sep-15 10:00N 40°35' W 074°12'0 0.0
2017-Sep-15 09:30N 40°35' W 074°12'0 0.0
2017-Sep-15 09:00N 40°35' W 074°12'0 0.0
2017-Sep-15 08:30N 40°35' W 074°12'0 0.0
2017-Sep-15 08:00N 40°35' W 074°12'0 0.0
2017-Sep-15 07:29N 40°35' W 074°12'0 0.0
2017-Sep-15 07:00N 40°35' W 074°12'0 0.0
2017-Sep-15 06:30N 40°35' W 074°12'0 0.0
2017-Sep-15 06:00N 40°35' W 074°12'0 0.0
2017-Sep-15 05:30N 40°35' W 074°12'0 0.0
2017-Sep-15 05:00N 40°35' W 074°12'2 4.8
2017-Sep-15 04:30N 40°38' W 074°12'4 7.8
2017-Sep-15 04:00N 40°39' W 074°07'0 0.0
2017-Sep-15 03:30N 40°39' W 074°07'0 0.0
2017-Sep-15 03:00N 40°39' W 074°07'0 0.0
2017-Sep-15 02:30N 40°39' W 074°07'0 0.0
2017-Sep-15 02:00N 40°39' W 074°07'0 0.0
2017-Sep-15 01:30N 40°39' W 074°07'0 0.0
2017-Sep-15 01:00N 40°39' W 074°07'0 0.0
2017-Sep-15 00:30N 40°39' W 074°07'0 0.0
2017-Sep-15 00:00N 40°39' W 074°07'0 0.0
2017-Sep-14 23:30N 40°39' W 074°07'0 0.0
2017-Sep-14 23:00N 40°39' W 074°07'0 0.0
2017-Sep-14 22:30N 40°39' W 074°07'0 0.0
2017-Sep-14 22:00N 40°39' W 074°07'0 0.0
2017-Sep-14 21:30N 40°39' W 074°07'0 0.0
2017-Sep-14 21:00N 40°39' W 074°07'0 0.0
2017-Sep-14 20:30N 40°39' W 074°07'0 0.0
2017-Sep-14 20:00N 40°39' W 074°07'0 0.0
2017-Sep-14 19:30N 40°39' W 074°07'0 0.1
2017-Sep-14 19:01N 40°39' W 074°07'4 7.7
2017-Sep-14 18:30N 40°38' W 074°12'2 4.7
2017-Sep-14 18:00N 40°35' W 074°12'0 0.0
2017-Sep-14 17:30N 40°35' W 074°12'0 0.0
2017-Sep-14 17:00N 40°35' W 074°12'0 0.0
2017-Sep-14 16:30N 40°35' W 074°12'0 0.0
2017-Sep-14 16:00N 40°35' W 074°12'0 0.0
2017-Sep-14 15:30N 40°35' W 074°12'0 0.0
2017-Sep-14 15:00N 40°35' W 074°12'0 0.0
2017-Sep-14 14:30N 40°35' W 074°12'0 0.0
2017-Sep-14 14:00N 40°35' W 074°12'1 2.1
2017-Sep-14 13:30N 40°34' W 074°13'4 6.9
2017-Sep-14 13:00N 40°31' W 074°15'2 3.2
2017-Sep-14 12:29N 40°30' W 074°15'1 1.3
2017-Sep-14 12:01N 40°30' W 074°16'2 4.3
2017-Sep-14 11:30N 40°33' W 074°15'0 0.2
2017-Sep-14 10:59N 40°33' W 074°15'0 0.2
2017-Sep-14 10:24N 40°33' W 074°15'0 0.0
2017-Sep-14 09:39N 40°33' W 074°15'0 0.0
2017-Sep-14 09:15N 40°33' W 074°15'0 0.0
2017-Sep-14 08:57N 40°33' W 074°15'0 0.0
2017-Sep-14 08:27N 40°33' W 074°15'0 0.0
2017-Sep-14 07:45N 40°33' W 074°15'0 0.0
2017-Sep-14 06:27N 40°33' W 074°15'0 0.0
2017-Sep-14 05:57N 40°33' W 074°15'0 0.0
2017-Sep-14 05:30N 40°33' W 074°15'0 0.0
2017-Sep-14 05:00N 40°33' W 074°15'0 0.0
2017-Sep-14 04:30N 40°33' W 074°15'0 0.0
2017-Sep-14 04:00N 40°33' W 074°15'0 0.0
2017-Sep-14 03:21N 40°33' W 074°15'0 0.0
2017-Sep-14 02:51N 40°33' W 074°15'0 0.0
2017-Sep-14 02:30N 40°33' W 074°15'0 0.0
2017-Sep-14 02:00N 40°33' W 074°15'2 3.6
2017-Sep-14 01:27N 40°34' W 074°13'4 9.4
2017-Sep-14 01:00N 40°38' W 074°12'  
Track history (hours):
 
Tides and Currents Weather Stations Pressure Air Temp Water Temp Dewpoint Dewpoint Depression Visibility Wind Speed Wind Dir Waves Ship Positions

Jane A. Bouchard

Owner: TUG JANE A BOUCHARD, MELVILLE, NY. More information available from US FCC via Universal Licensing System and Coast Guard Vessel Documentation Center.

Last reported at 2017-Sep-24 01:00 UTC. Time now 2017-Sep-24 10:27 UTC.
Position N 43°38' W 070°16'.

Length 163 m; draft 7 m.

Type: Towing. MMSI: 366897920.

Date/timePositionNaut miles runAvg speedWind from/ knotsBaromVisibWave heightAir tempDewpointWater temp
2017-Sep-24 01:00N 43°38' W 070°16'0 0.0
2017-Sep-24 00:24N 43°38' W 070°16'0 0.0
2017-Sep-23 23:51N 43°38' W 070°16'0 0.0
2017-Sep-23 23:30N 43°38' W 070°16'0 0.0
2017-Sep-23 23:00N 43°38' W 070°16'0 0.4
2017-Sep-23 22:30N 43°39' W 070°16'3 4.5
2017-Sep-23 21:57N 43°38' W 070°12'4 9.4
2017-Sep-23 21:30N 43°34' W 070°09'3 6.7
2017-Sep-23 21:00N 43°32' W 070°06'4 7.8
2017-Sep-23 20:30N 43°28' W 070°07'4 7.9
2017-Sep-23 20:00N 43°24' W 070°08'156 3.2
2017-Sep-21 19:10N 41°15' W 072°05'312.3
2017-Sep-21 18:55N 41°14' W 072°09'512.4
2017-Sep-21 18:30N 41°13' W 072°16'612.4
2017-Sep-21 18:00N 41°11' W 072°23'611.7
2017-Sep-21 17:30N 41°10' W 072°31'611.2
2017-Sep-21 17:00N 41°11' W 072°38'510.7
2017-Sep-21 16:30N 41°11' W 072°46'  
2017-Sep-19 04:07N 40°59' W 073°28'110.8
2017-Sep-19 04:00N 40°58' W 073°29'510.5
2017-Sep-19 03:30N 40°56' W 073°35'510.3
2017-Sep-19 02:59N 40°54' W 073°42'510.1
2017-Sep-19 02:30N 40°50' W 073°46'4 8.0
2017-Sep-19 01:59N 40°48' W 073°51'3 6.8
2017-Sep-19 01:29N 40°47' W 073°55'4 7.4
2017-Sep-19 01:01N 40°44' W 073°58'3 6.9
2017-Sep-19 00:31N 40°42' W 074°01'3 5.6
2017-Sep-19 00:01N 40°45' W 074°01'3 5.0
2017-Sep-18 23:31N 40°47' W 073°60'3 5.2
2017-Sep-18 23:01N 40°49' W 073°58'4 7.2
2017-Sep-18 22:30N 40°53' W 073°56'  
2017-Sep-15 20:53N 40°60' W 073°54'2 6.3
2017-Sep-15 20:30N 40°57' W 073°54'7 7.2
2017-Sep-15 19:30N 40°51' W 073°57'611.7
2017-Sep-15 19:00N 40°45' W 074°01'611.0
2017-Sep-15 18:30N 40°40' W 074°03'4 7.7
2017-Sep-15 18:00N 40°39' W 074°08'4 7.2
2017-Sep-15 17:30N 40°38' W 074°12'2 4.5
2017-Sep-15 17:00N 40°35' W 074°12'0 0.0
2017-Sep-15 16:30N 40°35' W 074°12'0 0.0
2017-Sep-15 16:00N 40°35' W 074°12'0 0.0
2017-Sep-15 15:30N 40°35' W 074°12'0 0.0
2017-Sep-15 14:59N 40°35' W 074°12'0 0.0
2017-Sep-15 14:30N 40°35' W 074°12'0 0.0
2017-Sep-15 14:00N 40°35' W 074°12'0 0.0
2017-Sep-15 13:30N 40°35' W 074°12'0 0.0
2017-Sep-15 13:00N 40°35' W 074°12'0 0.0
2017-Sep-15 12:30N 40°35' W 074°12'0 0.0
2017-Sep-15 12:00N 40°35' W 074°12'0 0.0
2017-Sep-15 11:30N 40°35' W 074°12'0 0.0
2017-Sep-15 11:00N 40°35' W 074°12'0 0.0
2017-Sep-15 10:29N 40°35' W 074°12'0 0.0
2017-Sep-15 10:00N 40°35' W 074°12'0 0.0
2017-Sep-15 09:30N 40°35' W 074°12'0 0.0
2017-Sep-15 09:00N 40°35' W 074°12'0 0.0
2017-Sep-15 08:30N 40°35' W 074°12'0 0.0
2017-Sep-15 08:00N 40°35' W 074°12'0 0.0
2017-Sep-15 07:29N 40°35' W 074°12'0 0.0
2017-Sep-15 07:00N 40°35' W 074°12'0 0.0
2017-Sep-15 06:30N 40°35' W 074°12'0 0.0
2017-Sep-15 06:00N 40°35' W 074°12'0 0.0
2017-Sep-15 05:30N 40°35' W 074°12'0 0.0
2017-Sep-15 05:00N 40°35' W 074°12'2 4.8
2017-Sep-15 04:30N 40°38' W 074°12'4 7.8
2017-Sep-15 04:00N 40°39' W 074°07'0 0.0
2017-Sep-15 03:30N 40°39' W 074°07'0 0.0
2017-Sep-15 03:00N 40°39' W 074°07'0 0.0
2017-Sep-15 02:30N 40°39' W 074°07'0 0.0
2017-Sep-15 02:00N 40°39' W 074°07'0 0.0
2017-Sep-15 01:30N 40°39' W 074°07'0 0.0
2017-Sep-15 01:00N 40°39' W 074°07'0 0.0
2017-Sep-15 00:30N 40°39' W 074°07'0 0.0
2017-Sep-15 00:00N 40°39' W 074°07'0 0.0
2017-Sep-14 23:30N 40°39' W 074°07'0 0.0
2017-Sep-14 23:00N 40°39' W 074°07'0 0.0
2017-Sep-14 22:30N 40°39' W 074°07'0 0.0
2017-Sep-14 22:00N 40°39' W 074°07'0 0.0
2017-Sep-14 21:30N 40°39' W 074°07'0 0.0
2017-Sep-14 21:00N 40°39' W 074°07'0 0.0
2017-Sep-14 20:30N 40°39' W 074°07'0 0.0
2017-Sep-14 20:00N 40°39' W 074°07'0 0.0
2017-Sep-14 19:30N 40°39' W 074°07'0 0.1
2017-Sep-14 19:01N 40°39' W 074°07'4 7.7
2017-Sep-14 18:30N 40°38' W 074°12'2 4.7
2017-Sep-14 18:00N 40°35' W 074°12'0 0.0
2017-Sep-14 17:30N 40°35' W 074°12'0 0.0
2017-Sep-14 17:00N 40°35' W 074°12'0 0.0
2017-Sep-14 16:30N 40°35' W 074°12'0 0.0
2017-Sep-14 16:00N 40°35' W 074°12'0 0.0
2017-Sep-14 15:30N 40°35' W 074°12'0 0.0
2017-Sep-14 15:00N 40°35' W 074°12'0 0.0
2017-Sep-14 14:30N 40°35' W 074°12'0 0.0
2017-Sep-14 14:00N 40°35' W 074°12'1 2.1
2017-Sep-14 13:30N 40°34' W 074°13'4 6.9
2017-Sep-14 13:00N 40°31' W 074°15'2 3.2
2017-Sep-14 12:29N 40°30' W 074°15'1 1.3
2017-Sep-14 12:01N 40°30' W 074°16'2 4.3
2017-Sep-14 11:30N 40°33' W 074°15'0 0.2
2017-Sep-14 10:59N 40°33' W 074°15'0 0.2
2017-Sep-14 10:24N 40°33' W 074°15'0 0.0
2017-Sep-14 09:39N 40°33' W 074°15'0 0.0
2017-Sep-14 09:15N 40°33' W 074°15'0 0.0
2017-Sep-14 08:57N 40°33' W 074°15'0 0.0
2017-Sep-14 08:27N 40°33' W 074°15'0 0.0
2017-Sep-14 07:45N 40°33' W 074°15'0 0.0
2017-Sep-14 06:27N 40°33' W 074°15'0 0.0
2017-Sep-14 05:57N 40°33' W 074°15'0 0.0
2017-Sep-14 05:30N 40°33' W 074°15'0 0.0
2017-Sep-14 05:00N 40°33' W 074°15'0 0.0
2017-Sep-14 04:30N 40°33' W 074°15'0 0.0
2017-Sep-14 04:00N 40°33' W 074°15'0 0.0
2017-Sep-14 03:21N 40°33' W 074°15'0 0.0
2017-Sep-14 02:51N 40°33' W 074°15'0 0.0
2017-Sep-14 02:30N 40°33' W 074°15'0 0.0
2017-Sep-14 02:00N 40°33' W 074°15'2 3.6
2017-Sep-14 01:27N 40°34' W 074°13'4 9.4
2017-Sep-14 01:00N 40°38' W 074°12'  

Dump ship's entire track history